createdAt,value
2023-12-24T00:01:16.610Z,4.55
2023-12-24T00:04:20.138Z,4.20
2023-12-24T00:07:23.509Z,4.73
2023-12-24T00:10:26.860Z,5.00
2023-12-24T00:13:33.091Z,5.18
2023-12-24T00:16:40.125Z,3.92
2023-12-24T00:19:43.550Z,4.10
2023-12-24T00:23:08.630Z,4.32
2023-12-24T00:26:12.298Z,4.50
2023-12-24T00:29:15.847Z,4.28
2023-12-24T00:32:21.131Z,4.37
2023-12-24T00:35:25.610Z,4.80
2023-12-24T00:38:30.218Z,3.85
2023-12-24T00:41:38.791Z,4.38
2023-12-24T00:44:45.182Z,3.20
2023-12-24T00:47:49.085Z,4.18
2023-12-24T00:50:52.765Z,3.50
2023-12-24T00:53:56.142Z,3.83
2023-12-24T00:56:59.534Z,3.30
2023-12-24T01:00:02.929Z,3.08
2023-12-24T01:03:06.423Z,3.25
2023-12-24T01:06:10.400Z,2.90
2023-12-24T01:09:13.959Z,2.90
2023-12-24T01:12:17.912Z,2.97
2023-12-24T01:15:21.713Z,3.10
2023-12-24T01:18:25.271Z,2.38
2023-12-24T01:21:28.740Z,2.70
2023-12-24T01:24:32.147Z,2.17
2023-12-24T01:27:35.737Z,2.35
2023-12-24T01:30:39.114Z,2.33
2023-12-24T01:33:43.210Z,2.50
2023-12-24T01:36:46.639Z,2.50
2023-12-24T01:39:50.065Z,3.03
2023-12-24T01:42:53.699Z,2.40
2023-12-24T01:45:57.680Z,3.08
2023-12-24T01:49:04.058Z,2.67
2023-12-24T01:52:07.952Z,2.92
2023-12-24T01:55:11.577Z,3.22
2023-12-24T01:58:15.392Z,2.70
2023-12-24T02:01:19.579Z,2.83
2023-12-24T02:04:23.137Z,3.20
2023-12-24T02:07:27.498Z,3.45
2023-12-24T02:10:31.624Z,3.08
2023-12-24T02:13:35.631Z,3.47
2023-12-24T02:16:41.664Z,3.38
2023-12-24T02:19:45.385Z,3.40
2023-12-24T02:22:48.998Z,3.33
2023-12-24T02:25:54.704Z,3.17
2023-12-24T02:29:05.149Z,3.53
2023-12-24T02:32:18.422Z,3.03
2023-12-24T02:35:22.960Z,3.45
2023-12-24T02:38:26.685Z,3.38
2023-12-24T02:41:30.142Z,3.38
2023-12-24T02:44:34.302Z,3.60
2023-12-24T02:47:38.671Z,3.83
2023-12-24T02:50:42.262Z,4.47
2023-12-24T02:53:45.781Z,3.88
2023-12-24T02:56:50.419Z,4.05
2023-12-24T02:59:53.963Z,4.63
2023-12-24T03:02:57.786Z,5.03
2023-12-24T03:06:01.277Z,4.55
2023-12-24T03:09:04.925Z,4.85
2023-12-24T03:12:08.779Z,4.57
2023-12-24T03:15:12.983Z,5.38
2023-12-24T03:18:16.511Z,5.15
2023-12-24T03:21:19.926Z,5.72
2023-12-24T03:24:23.303Z,5.32
2023-12-24T03:27:27.689Z,5.25
2023-12-24T03:30:31.115Z,5.90
2023-12-24T03:33:34.634Z,5.60
2023-12-24T03:36:38.269Z,4.65
2023-12-24T03:39:41.647Z,6.30
2023-12-24T03:42:45.012Z,5.15
2023-12-24T03:45:48.387Z,5.60
2023-12-24T03:48:52.018Z,5.85
2023-12-24T03:51:55.710Z,5.50
2023-12-24T03:54:59.179Z,5.22
2023-12-24T03:58:02.590Z,5.45
2023-12-24T04:01:10.218Z,6.03
2023-12-24T04:04:13.686Z,5.72
2023-12-24T04:07:17.750Z,5.00
2023-12-24T04:10:22.308Z,5.60
2023-12-24T04:13:25.976Z,5.22
2023-12-24T04:16:29.484Z,5.45
2023-12-24T04:19:33.016Z,5.85
2023-12-24T04:22:36.422Z,5.82
2023-12-24T04:25:39.881Z,5.10
2023-12-24T04:28:43.643Z,5.33
2023-12-24T04:31:49.397Z,5.93
2023-12-24T04:34:52.984Z,5.50
2023-12-24T04:37:56.748Z,5.60
2023-12-24T04:41:00.985Z,5.97
2023-12-24T04:44:04.482Z,5.50
2023-12-24T04:47:12.861Z,6.47
2023-12-24T04:50:16.388Z,5.30
2023-12-24T04:53:20.776Z,6.00
2023-12-24T04:56:24.643Z,5.25
2023-12-24T04:59:28.632Z,5.68
2023-12-24T05:02:32.271Z,5.28
2023-12-24T05:05:35.994Z,5.43
2023-12-24T05:08:42.292Z,5.00
2023-12-24T05:11:45.909Z,5.60
2023-12-24T05:14:50.632Z,5.55
2023-12-24T05:17:54.329Z,5.90
2023-12-24T05:20:57.799Z,6.00
2023-12-24T05:24:01.586Z,5.38
2023-12-24T05:27:05.177Z,4.90
2023-12-24T05:30:09.270Z,5.50
2023-12-24T05:33:13.085Z,5.20
2023-12-24T05:36:16.936Z,5.82
2023-12-24T05:39:20.328Z,4.55
2023-12-24T05:42:23.737Z,4.93
2023-12-24T05:45:27.145Z,5.20
2023-12-24T05:48:30.597Z,5.38
2023-12-24T05:51:34.000Z,5.43
2023-12-24T05:54:37.351Z,6.22
2023-12-24T05:57:40.735Z,7.90
2023-12-24T06:00:44.102Z,9.10
2023-12-24T06:03:47.513Z,11.05
2023-12-24T06:06:50.928Z,23.52
2023-12-24T06:09:54.347Z,19.08
2023-12-24T06:12:57.701Z,30.30
2023-12-24T06:16:01.130Z,31.50
2023-12-24T06:19:04.834Z,24.45
2023-12-24T06:22:08.752Z,16.65
2023-12-24T06:25:12.314Z,6.95
2023-12-24T06:28:15.700Z,4.85
2023-12-24T06:31:24.172Z,4.65
2023-12-24T06:34:27.662Z,5.13
2023-12-24T06:37:31.028Z,4.65
2023-12-24T06:40:37.181Z,4.43
2023-12-24T06:43:41.068Z,4.70
2023-12-24T06:46:44.498Z,8.85
2023-12-24T06:49:47.921Z,8.80
2023-12-24T06:52:51.555Z,13.53
2023-12-24T06:55:55.069Z,13.60
2023-12-24T06:58:58.457Z,15.85
2023-12-24T07:02:02.592Z,8.80
2023-12-24T07:05:06.138Z,6.63
2023-12-24T07:08:10.037Z,11.57
2023-12-24T07:11:14.374Z,9.15
2023-12-24T07:14:17.991Z,11.57
2023-12-24T07:17:21.469Z,14.20
2023-12-24T07:20:25.056Z,8.95
2023-12-24T07:23:28.701Z,5.73
2023-12-24T07:26:32.203Z,5.40
2023-12-24T07:29:35.602Z,4.35
2023-12-24T07:32:43.516Z,4.07
2023-12-24T07:35:46.948Z,3.67
2023-12-24T07:38:50.304Z,3.90
2023-12-24T07:41:56.583Z,3.33
2023-12-24T07:44:59.945Z,3.70
2023-12-24T07:48:03.888Z,4.43
2023-12-24T07:51:07.363Z,4.18
2023-12-24T07:54:10.808Z,3.97
2023-12-24T07:57:14.209Z,3.72
2023-12-24T08:00:19.041Z,5.20
2023-12-24T08:03:22.781Z,5.18
2023-12-24T08:06:28.797Z,5.35
2023-12-24T08:09:33.054Z,5.37
2023-12-24T08:12:36.629Z,6.88
2023-12-24T08:15:40.134Z,7.60
2023-12-24T08:21:47.199Z,7.30
2023-12-24T08:24:50.653Z,6.10
2023-12-24T08:27:54.013Z,5.40
2023-12-24T08:30:57.368Z,5.03
2023-12-24T08:34:01.015Z,6.80
2023-12-24T08:37:04.543Z,3.97
2023-12-24T08:40:08.708Z,3.70
2023-12-24T08:43:12.121Z,3.90
2023-12-24T08:46:15.574Z,3.60
2023-12-24T08:49:19.080Z,4.20
2023-12-24T08:52:22.697Z,4.18
2023-12-24T08:55:26.094Z,3.50
2023-12-24T08:58:29.558Z,3.78
2023-12-24T09:01:32.991Z,3.30
2023-12-24T09:04:36.362Z,3.95
2023-12-24T09:07:39.987Z,4.55
2023-12-24T09:10:43.965Z,6.10
2023-12-24T09:13:47.445Z,4.68
2023-12-24T09:16:50.888Z,5.28
2023-12-24T09:19:54.317Z,6.45
2023-12-24T09:22:57.839Z,6.65
2023-12-24T09:26:01.254Z,7.63
2023-12-24T09:29:04.776Z,7.45
2023-12-24T09:32:08.286Z,6.47
2023-12-24T09:35:11.795Z,5.55
2023-12-24T09:38:15.169Z,5.20
2023-12-24T09:41:20.861Z,7.77
2023-12-24T09:44:25.162Z,6.25
2023-12-24T09:47:29.375Z,5.50
2023-12-24T09:50:32.902Z,4.50
2023-12-24T09:53:36.945Z,4.55
2023-12-24T09:56:40.586Z,5.37
2023-12-24T09:59:44.021Z,3.40
2023-12-24T10:02:47.653Z,4.07
2023-12-24T10:06:01.018Z,4.22
2023-12-24T10:09:04.508Z,5.25
2023-12-24T10:12:10.469Z,4.03
2023-12-24T10:15:21.396Z,7.18
2023-12-24T10:18:24.988Z,6.15
2023-12-24T10:21:28.855Z,4.00
2023-12-24T10:24:33.275Z,5.43
2023-12-24T10:27:36.650Z,7.00
2023-12-24T10:30:40.137Z,3.10
2023-12-24T10:33:44.085Z,2.92
2023-12-24T10:36:47.898Z,2.70
2023-12-24T10:39:52.153Z,3.17
2023-12-24T10:42:55.713Z,9.90
2023-12-24T10:45:59.206Z,11.80
2023-12-24T10:49:02.673Z,5.03
2023-12-24T10:52:06.524Z,5.07
2023-12-24T10:55:12.037Z,4.95
2023-12-24T10:58:34.277Z,6.13
2023-12-24T11:01:39.384Z,4.55
2023-12-24T11:04:46.955Z,5.70
2023-12-24T11:07:50.890Z,5.88
2023-12-24T11:11:15.244Z,7.03
2023-12-24T11:14:37.513Z,6.07
2023-12-24T11:17:51.199Z,6.65
2023-12-24T11:21:00.065Z,7.05
2023-12-24T11:24:23.778Z,5.75
2023-12-24T11:27:53.912Z,9.20
2023-12-24T11:31:00.380Z,9.93
2023-12-24T11:34:04.145Z,7.10
2023-12-24T11:37:07.551Z,13.80
2023-12-24T11:40:20.973Z,11.68
2023-12-24T11:43:24.417Z,12.43
2023-12-24T11:46:35.348Z,11.53
2023-12-24T11:49:41.536Z,7.43
2023-12-24T11:52:47.345Z,7.70
2023-12-24T11:56:14.148Z,9.52
2023-12-24T11:59:17.663Z,13.35
2023-12-24T12:02:21.111Z,8.33
2023-12-24T12:05:25.283Z,9.32
2023-12-24T12:08:29.852Z,11.00
2023-12-24T12:11:33.349Z,8.85
2023-12-24T12:14:36.820Z,9.90
2023-12-24T12:17:40.327Z,6.93
2023-12-24T12:20:47.465Z,5.47
2023-12-24T12:23:50.889Z,4.45
2023-12-24T12:26:54.506Z,5.03
2023-12-24T12:29:57.992Z,9.02
2023-12-24T12:33:02.246Z,7.20
2023-12-24T12:36:08.920Z,7.88
2023-12-24T12:39:12.666Z,8.93
2023-12-24T12:42:16.038Z,8.00
2023-12-24T12:45:19.475Z,6.18
2023-12-24T12:48:22.946Z,6.40
2023-12-24T12:51:26.832Z,9.55
2023-12-24T12:54:30.228Z,9.38
2023-12-24T12:57:40.231Z,12.15
2023-12-24T13:00:43.768Z,6.57
2023-12-24T13:04:02.280Z,13.23
2023-12-24T13:07:09.853Z,10.82
2023-12-24T13:10:14.419Z,7.05
2023-12-24T13:13:23.081Z,5.30
2023-12-24T13:16:26.609Z,4.90
2023-12-24T13:19:30.162Z,4.77
2023-12-24T13:22:33.680Z,4.82
2023-12-24T13:25:44.251Z,4.82
2023-12-24T13:28:47.773Z,4.28
2023-12-24T13:31:51.252Z,4.20
2023-12-24T13:34:54.948Z,3.57
2023-12-24T13:37:58.344Z,3.67
2023-12-24T13:41:01.748Z,4.28
2023-12-24T13:44:05.320Z,3.97
2023-12-24T13:47:08.913Z,4.50
2023-12-24T13:50:12.800Z,4.80
2023-12-24T13:53:24.901Z,5.10
2023-12-24T13:56:35.528Z,4.80
2023-12-24T13:59:39.845Z,5.30
2023-12-24T14:02:43.839Z,5.18
2023-12-24T14:05:47.302Z,4.87
2023-12-24T14:08:50.854Z,5.03
2023-12-24T14:11:54.311Z,5.10
2023-12-24T14:14:59.478Z,4.65
2023-12-24T14:18:04.514Z,4.47
2023-12-24T14:21:08.097Z,4.97
2023-12-24T14:24:11.524Z,5.30
2023-12-24T14:27:15.051Z,5.95
2023-12-24T14:30:18.622Z,5.50
2023-12-24T14:33:22.383Z,5.32
2023-12-24T14:36:25.835Z,5.60
2023-12-24T14:39:29.233Z,6.07
2023-12-24T14:42:32.955Z,6.22
2023-12-24T14:45:36.375Z,6.20
2023-12-24T14:48:40.145Z,7.05
2023-12-24T14:51:43.694Z,7.27
2023-12-24T14:54:47.367Z,6.80
2023-12-24T14:57:50.816Z,7.45
2023-12-24T15:00:54.255Z,6.60
2023-12-24T15:03:57.654Z,6.53
2023-12-24T15:07:01.154Z,6.47
2023-12-24T15:10:05.058Z,6.32
2023-12-24T15:13:08.596Z,6.60
2023-12-24T15:16:12.453Z,6.70
2023-12-24T15:19:16.021Z,6.93
2023-12-24T15:22:19.544Z,6.03
2023-12-24T15:25:23.001Z,6.03
2023-12-24T15:28:26.342Z,5.95
2023-12-24T15:31:31.129Z,10.63
2023-12-24T15:34:34.673Z,7.20
2023-12-24T15:37:38.101Z,6.90
2023-12-24T15:40:41.832Z,14.07
2023-12-24T15:43:46.772Z,12.93
2023-12-24T15:46:50.907Z,6.97
2023-12-24T15:49:55.358Z,6.82
2023-12-24T15:52:58.725Z,5.77
2023-12-24T15:56:02.653Z,9.98
2023-12-24T15:59:06.058Z,15.20
2023-12-24T16:02:09.579Z,14.27
2023-12-24T16:05:14.642Z,16.65
2023-12-24T16:08:18.377Z,14.43
2023-12-24T16:11:21.904Z,11.82
2023-12-24T16:14:25.648Z,9.10
2023-12-24T16:17:29.173Z,9.77
2023-12-24T16:20:32.665Z,9.95
2023-12-24T16:23:36.347Z,8.20
2023-12-24T16:26:41.472Z,9.65
2023-12-24T16:29:45.102Z,10.10
2023-12-24T16:32:49.219Z,8.70
2023-12-24T16:35:53.232Z,8.85
2023-12-24T16:38:56.742Z,10.07
2023-12-24T16:42:00.435Z,8.60
2023-12-24T16:45:04.444Z,8.00
2023-12-24T16:48:08.170Z,8.18
2023-12-24T16:51:19.163Z,8.25
2023-12-24T16:54:22.694Z,9.80
2023-12-24T16:57:26.185Z,8.70
2023-12-24T17:00:29.755Z,7.97
2023-12-24T17:03:33.301Z,9.40
2023-12-24T17:06:36.860Z,13.95
2023-12-24T17:09:40.397Z,12.27
2023-12-24T17:12:45.750Z,12.88
2023-12-24T17:15:49.281Z,9.35
2023-12-24T17:18:52.911Z,5.60
2023-12-24T17:21:56.415Z,6.93
2023-12-24T17:24:59.817Z,7.33
2023-12-24T17:28:03.372Z,6.75
2023-12-24T17:31:09.985Z,7.05
2023-12-24T17:34:13.725Z,7.40
2023-12-24T17:37:17.118Z,7.13
2023-12-24T17:40:20.771Z,6.03
2023-12-24T17:43:26.131Z,7.82
2023-12-24T17:46:32.639Z,6.80
2023-12-24T17:49:36.231Z,6.43
2023-12-24T17:52:40.225Z,7.50
2023-12-24T17:55:43.631Z,8.10
2023-12-24T17:58:47.100Z,8.10
2023-12-24T18:01:50.576Z,8.10
2023-12-24T18:04:54.070Z,15.80
2023-12-24T18:07:57.625Z,10.95
2023-12-24T18:11:01.128Z,10.83
2023-12-24T18:14:04.589Z,9.77
2023-12-24T18:17:07.962Z,10.02
2023-12-24T18:20:13.355Z,10.05
2023-12-24T18:23:17.902Z,11.98
2023-12-24T18:26:21.505Z,11.47
2023-12-24T18:29:24.975Z,8.82
2023-12-24T18:32:28.870Z,7.45
2023-12-24T18:35:32.381Z,7.03
2023-12-24T18:38:37.234Z,9.30
2023-12-24T18:41:40.864Z,7.43
2023-12-24T18:44:44.366Z,7.22
2023-12-24T18:47:48.477Z,8.23
2023-12-24T18:50:52.058Z,10.55
2023-12-24T18:53:55.659Z,9.95
2023-12-24T18:56:59.128Z,7.10
2023-12-24T19:00:02.569Z,7.45
2023-12-24T19:03:06.474Z,6.03
2023-12-24T19:06:20.258Z,7.35
2023-12-24T19:09:24.548Z,8.57
2023-12-24T19:12:28.036Z,6.43
2023-12-24T19:15:31.489Z,7.15
2023-12-24T19:18:35.000Z,6.63
2023-12-24T19:21:38.449Z,6.10
2023-12-24T19:24:41.880Z,7.82
2023-12-24T19:27:46.759Z,7.03
2023-12-24T19:30:50.261Z,6.32
2023-12-24T19:33:53.781Z,6.47
2023-12-24T19:36:58.789Z,5.03
2023-12-24T19:40:02.614Z,4.30
2023-12-24T19:43:06.069Z,4.23
2023-12-24T19:46:09.493Z,4.50
2023-12-24T19:49:13.367Z,5.50
2023-12-24T19:52:32.716Z,5.47
2023-12-24T19:55:43.831Z,5.30
2023-12-24T19:58:47.677Z,5.00
2023-12-24T20:01:51.118Z,4.93
2023-12-24T20:04:54.909Z,5.07
2023-12-24T20:07:58.325Z,4.90
2023-12-24T20:11:02.128Z,5.00
2023-12-24T20:14:07.007Z,5.13
2023-12-24T20:17:10.664Z,5.10
2023-12-24T20:20:14.336Z,5.07
2023-12-24T20:23:17.896Z,5.53
2023-12-24T20:26:21.573Z,6.47
2023-12-24T20:29:24.996Z,8.60
2023-12-24T20:32:28.877Z,7.90
2023-12-24T20:35:32.420Z,8.95
2023-12-24T20:38:35.903Z,14.82
2023-12-24T20:41:46.198Z,13.93
2023-12-24T20:44:49.768Z,9.63
2023-12-24T20:47:53.408Z,7.10
2023-12-24T20:50:57.559Z,5.72
2023-12-24T20:54:01.776Z,5.80
2023-12-24T20:57:05.580Z,5.43
2023-12-24T21:00:10.127Z,5.50
2023-12-24T21:03:14.811Z,6.18
2023-12-24T21:06:19.696Z,5.32
2023-12-24T21:09:23.193Z,4.88
2023-12-24T21:12:26.581Z,5.25
2023-12-24T21:15:30.028Z,5.57
2023-12-24T21:18:33.508Z,4.97
2023-12-24T21:21:37.291Z,5.15
2023-12-24T21:24:40.656Z,5.50
2023-12-24T21:27:44.029Z,4.45
2023-12-24T21:30:47.543Z,4.60
2023-12-24T21:33:52.817Z,4.63
2023-12-24T21:36:57.490Z,4.72
2023-12-24T21:40:00.951Z,4.55
2023-12-24T21:43:04.509Z,4.22
2023-12-24T21:46:07.926Z,4.17
2023-12-24T21:49:14.498Z,4.00
2023-12-24T21:52:17.945Z,3.97
2023-12-24T21:55:22.650Z,4.20
2023-12-24T21:58:26.155Z,4.80
2023-12-24T22:01:33.020Z,3.60
2023-12-24T22:04:37.019Z,3.83
2023-12-24T22:07:40.413Z,4.38
2023-12-24T22:10:44.831Z,4.63
2023-12-24T22:13:49.169Z,3.90
2023-12-24T22:16:52.850Z,3.63
2023-12-24T22:19:56.339Z,4.15
2023-12-24T22:22:59.727Z,4.18
2023-12-24T22:26:09.907Z,3.65
2023-12-24T22:29:13.336Z,4.95
2023-12-24T22:32:16.740Z,4.80
2023-12-24T22:35:20.441Z,4.40
2023-12-24T22:38:23.948Z,4.00
2023-12-24T22:41:31.179Z,4.72
2023-12-24T22:44:34.727Z,3.97
2023-12-24T22:47:38.327Z,4.53
2023-12-24T22:50:41.860Z,4.35
2023-12-24T22:53:45.517Z,5.13
2023-12-24T22:56:48.947Z,5.20
2023-12-24T22:59:52.371Z,12.82
2023-12-24T23:02:55.886Z,7.10
2023-12-24T23:06:00.177Z,7.80
2023-12-24T23:09:04.008Z,5.80
2023-12-24T23:12:07.920Z,4.78
2023-12-24T23:15:11.456Z,4.13
2023-12-24T23:18:15.068Z,3.60
2023-12-24T23:21:19.419Z,3.60
2023-12-24T23:24:22.785Z,3.30
2023-12-24T23:27:27.123Z,3.20
2023-12-24T23:30:30.832Z,3.10
2023-12-24T23:33:34.455Z,2.60
2023-12-24T23:36:37.979Z,3.08
2023-12-24T23:39:41.312Z,2.97
2023-12-24T23:42:44.697Z,3.00
2023-12-24T23:45:48.127Z,3.17
2023-12-24T23:48:51.622Z,3.00
2023-12-24T23:51:55.059Z,2.30
2023-12-24T23:54:58.437Z,2.65
2023-12-24T23:58:01.805Z,2.60
